createdAt,value
2017-07-01T00:00:31.132Z,0
2017-07-01T00:01:41.044Z,0
2017-07-01T00:02:50.952Z,0
2017-07-01T00:04:00.854Z,0
2017-07-01T00:05:11.067Z,0
2017-07-01T00:06:20.670Z,0
2017-07-01T00:07:30.576Z,0
2017-07-01T00:08:40.482Z,0
2017-07-01T00:09:50.733Z,0
2017-07-01T00:11:00.645Z,0
2017-07-01T00:12:10.693Z,0
2017-07-01T00:13:20.904Z,0
2017-07-01T00:14:31.113Z,0
2017-07-01T00:15:41.326Z,0
2017-07-01T00:16:51.246Z,0
2017-07-01T00:18:01.489Z,0
2017-07-01T00:19:11.712Z,0
2017-07-01T00:20:21.620Z,0
2017-07-01T00:21:31.863Z,0
2017-07-01T00:22:41.770Z,0
2017-07-01T00:23:51.819Z,0
2017-07-01T00:25:01.723Z,0
2017-07-01T00:26:11.615Z,0
2017-07-01T00:27:21.843Z,0
2017-07-01T00:28:32.065Z,0
2017-07-01T00:29:42.271Z,0
2017-07-01T00:30:52.167Z,0
2017-07-01T00:32:02.069Z,0
2017-07-01T00:33:11.974Z,0
2017-07-01T00:34:21.875Z,0
2017-07-01T00:35:32.246Z,0
2017-07-01T00:36:42.157Z,0
2017-07-01T00:37:52.359Z,0
2017-07-01T00:39:01.949Z,0
2017-07-01T00:40:12.159Z,0
2017-07-01T00:41:21.440Z,0
2017-07-01T00:42:31.341Z,0
2017-07-01T00:43:40.952Z,0
2017-07-01T00:44:50.846Z,0
2017-07-01T00:46:01.060Z,0
2017-07-01T00:47:11.014Z,0
2017-07-01T00:48:21.242Z,0
2017-07-01T00:49:31.446Z,0
2017-07-01T00:50:41.052Z,0
2017-07-01T00:51:50.670Z,0
2017-07-01T00:53:00.880Z,0
2017-07-01T00:54:11.096Z,0
2017-07-01T00:55:21.294Z,0
2017-07-01T00:56:31.198Z,0
2017-07-01T00:57:41.102Z,0
2017-07-01T00:58:50.762Z,0
2017-07-01T01:00:00.971Z,0
2017-07-01T01:01:11.194Z,0
2017-07-01T01:02:21.400Z,0
2017-07-01T01:03:30.988Z,0
2017-07-01T01:04:40.932Z,0
2017-07-01T01:05:50.218Z,0
2017-07-01T01:07:00.120Z,0
2017-07-01T01:08:10.024Z,0
2017-07-01T01:09:20.225Z,0
2017-07-01T01:10:30.587Z,0
2017-07-01T01:11:40.487Z,0
2017-07-01T01:12:50.398Z,0
2017-07-01T01:13:59.674Z,0
2017-07-01T01:15:09.638Z,0
2017-07-01T01:16:20.007Z,0
2017-07-01T01:17:30.226Z,0
2017-07-01T01:18:40.128Z,0
2017-07-01T01:19:50.070Z,0
2017-07-01T01:20:59.732Z,0
2017-07-01T01:22:10.108Z,0
2017-07-01T01:23:20.004Z,0
2017-07-01T01:24:30.216Z,0
2017-07-01T01:25:40.438Z,0
2017-07-01T01:26:50.335Z,0
2017-07-01T01:28:00.284Z,0
2017-07-01T01:29:09.874Z,0
2017-07-01T01:30:19.471Z,0
2017-07-01T01:31:28.146Z,0
2017-07-01T01:32:38.350Z,0
2017-07-01T01:33:48.398Z,0
2017-07-01T01:34:58.604Z,0
2017-07-01T01:36:08.210Z,0
2017-07-01T01:37:18.111Z,0
2017-07-01T01:38:28.320Z,0
2017-07-01T01:39:38.268Z,0
2017-07-01T01:40:48.173Z,0
2017-07-01T01:41:58.094Z,0
2017-07-01T01:43:08.307Z,0
2017-07-01T01:44:18.517Z,0
2017-07-01T01:45:28.572Z,0
2017-07-01T01:46:37.871Z,0
2017-07-01T01:47:48.069Z,0
2017-07-01T01:48:57.678Z,0
2017-07-01T01:50:07.280Z,0
2017-07-01T01:51:17.227Z,0
2017-07-01T01:52:27.178Z,0
2017-07-01T01:53:37.087Z,0
2017-07-01T01:54:46.690Z,0
2017-07-01T01:55:56.344Z,0
2017-07-01T01:57:06.364Z,0
2017-07-01T01:58:16.559Z,0
2017-07-01T01:59:26.164Z,0
2017-07-01T02:00:36.066Z,0
2017-07-01T02:01:45.985Z,0
2017-07-01T02:02:56.050Z,0
2017-07-01T02:04:05.687Z,0
2017-07-01T02:05:15.599Z,0
2017-07-01T02:06:25.508Z,0
2017-07-01T02:07:35.106Z,0
2017-07-01T02:08:44.991Z,0
2017-07-01T02:09:55.204Z,0
2017-07-01T02:11:05.114Z,0
2017-07-01T02:12:15.017Z,0
2017-07-01T02:13:24.931Z,0
2017-07-01T02:14:35.143Z,0
2017-07-01T02:15:45.060Z,0
2017-07-01T02:16:55.270Z,0
2017-07-01T02:18:05.177Z,0
2017-07-01T02:19:14.770Z,0
2017-07-01T02:20:24.360Z,0
2017-07-01T02:21:34.573Z,0
2017-07-01T02:22:44.790Z,0
2017-07-01T02:23:54.376Z,0
2017-07-01T02:25:04.277Z,0
2017-07-01T02:26:14.026Z,0
2017-07-01T02:27:24.241Z,0
2017-07-01T02:28:34.180Z,0
2017-07-01T02:29:44.077Z,0
2017-07-01T02:30:54.278Z,0
2017-07-01T02:33:12.867Z,0
2017-07-01T02:34:22.474Z,0
2017-07-01T02:35:32.384Z,0
2017-07-01T02:36:42.588Z,0
2017-07-01T02:37:52.503Z,0
2017-07-01T02:39:02.106Z,0
2017-07-01T02:40:12.021Z,0
2017-07-01T02:41:21.621Z,0
2017-07-01T02:42:31.524Z,0
2017-07-01T02:43:41.429Z,0
2017-07-01T02:44:51.330Z,0
2017-07-01T02:46:00.621Z,0
2017-07-01T02:47:10.219Z,0
2017-07-01T02:48:20.126Z,0
2017-07-01T02:49:30.333Z,0
2017-07-01T02:50:40.555Z,0
2017-07-01T02:51:50.148Z,0
2017-07-01T02:53:00.070Z,0
2017-07-01T02:54:09.994Z,0
2017-07-01T02:55:19.632Z,0
2017-07-01T02:56:30.213Z,0
2017-07-01T02:57:40.422Z,0
2017-07-01T02:58:50.644Z,0
2017-07-01T03:00:00.848Z,0
2017-07-01T03:01:11.064Z,0
2017-07-01T03:02:20.661Z,0
2017-07-01T03:03:30.570Z,0
2017-07-01T03:04:40.165Z,0
2017-07-01T03:05:49.464Z,0
2017-07-01T03:06:59.370Z,0
2017-07-01T03:08:08.977Z,0
2017-07-01T03:09:19.180Z,0
2017-07-01T03:10:29.392Z,0
2017-07-01T03:11:39.308Z,0
2017-07-01T03:12:49.511Z,4
2017-07-01T03:13:58.814Z,4
2017-07-01T03:15:08.716Z,4
2017-07-01T03:16:18.613Z,4
2017-07-01T03:17:28.508Z,4
2017-07-01T03:18:38.114Z,4
2017-07-01T03:19:48.325Z,4
2017-07-01T03:20:58.551Z,4
2017-07-01T03:22:08.149Z,4
2017-07-01T03:23:18.382Z,4
2017-07-01T03:24:28.294Z,8
2017-07-01T03:25:38.499Z,8
2017-07-01T03:26:48.696Z,4
2017-07-01T03:27:58.902Z,8
2017-07-01T03:29:08.492Z,8
2017-07-01T03:30:18.912Z,8
2017-07-01T03:31:28.502Z,12
2017-07-01T03:32:38.407Z,12
2017-07-01T03:33:48.622Z,12
2017-07-01T03:34:58.525Z,16
2017-07-01T03:36:08.735Z,12
2017-07-01T03:37:18.934Z,16
2017-07-01T03:38:28.838Z,16
2017-07-01T03:39:38.735Z,20
2017-07-01T03:40:48.337Z,20
2017-07-01T03:41:57.937Z,20
2017-07-01T03:43:07.538Z,20
2017-07-01T03:44:17.961Z,24
2017-07-01T03:45:27.561Z,24
2017-07-01T03:46:37.771Z,24
2017-07-01T03:47:47.373Z,28
2017-07-01T03:48:57.323Z,28
2017-07-01T03:50:06.934Z,28
2017-07-01T03:51:16.539Z,28
2017-07-01T03:52:26.741Z,28
2017-07-01T03:53:36.646Z,24
2017-07-01T03:54:46.548Z,28
2017-07-01T03:55:56.450Z,32
2017-07-01T03:57:06.049Z,32
2017-07-01T03:58:15.944Z,36
2017-07-01T03:59:26.151Z,36
2017-07-01T04:00:36.054Z,40
2017-07-01T04:01:45.711Z,44
2017-07-01T04:02:55.923Z,44
2017-07-01T04:04:05.828Z,44
2017-07-01T04:05:15.727Z,48
2017-07-01T04:06:25.630Z,48
2017-07-01T04:07:35.526Z,48
2017-07-01T04:08:45.434Z,44
2017-07-01T04:09:55.671Z,44
2017-07-01T04:11:05.260Z,48
2017-07-01T04:12:15.160Z,48
2017-07-01T04:13:25.368Z,52
2017-07-01T04:14:35.284Z,52
2017-07-01T04:15:45.218Z,56
2017-07-01T04:16:55.431Z,56
2017-07-01T04:18:05.030Z,60
2017-07-01T04:19:14.625Z,60
2017-07-01T04:20:24.843Z,60
2017-07-01T04:21:34.743Z,60
2017-07-01T04:22:44.046Z,60
2017-07-01T04:23:53.957Z,60
2017-07-01T04:25:03.881Z,64
2017-07-01T04:26:14.271Z,64
2017-07-01T04:27:23.908Z,68
2017-07-01T04:28:33.540Z,68
2017-07-01T04:29:43.491Z,72
2017-07-01T04:30:53.110Z,76
2017-07-01T04:32:03.343Z,76
2017-07-01T04:33:13.603Z,80
2017-07-01T04:34:23.816Z,76
2017-07-01T04:35:34.061Z,72
2017-07-01T04:36:43.681Z,68
2017-07-01T04:37:53.609Z,64
2017-07-01T04:39:03.531Z,64
2017-07-01T04:40:13.449Z,64
2017-07-01T04:41:23.055Z,68
2017-07-01T04:42:32.956Z,68
2017-07-01T04:43:42.860Z,72
2017-07-01T04:44:52.775Z,72
2017-07-01T04:46:02.674Z,72
2017-07-01T04:47:12.887Z,76
2017-07-01T04:48:23.091Z,80
2017-07-01T04:49:33.002Z,80
2017-07-01T04:50:43.202Z,84
2017-07-01T04:51:53.405Z,84
2017-07-01T04:53:03.624Z,88
2017-07-01T04:54:13.537Z,92
2017-07-01T04:55:23.748Z,96
2017-07-01T04:56:33.667Z,104
2017-07-01T04:57:43.282Z,108
2017-07-01T04:58:53.249Z,112
2017-07-01T05:00:03.169Z,120
2017-07-01T05:01:13.393Z,132
2017-07-01T05:02:22.683Z,136
2017-07-01T05:03:32.594Z,140
2017-07-01T05:04:42.801Z,144
2017-07-01T05:05:53.017Z,144
2017-07-01T05:07:02.611Z,148
2017-07-01T05:08:12.830Z,152
2017-07-01T05:09:22.732Z,148
2017-07-01T05:10:32.682Z,148
2017-07-01T05:11:42.012Z,144
2017-07-01T05:12:51.620Z,148
2017-07-01T05:14:01.831Z,148
2017-07-01T05:15:11.122Z,152
2017-07-01T05:16:20.729Z,160
2017-07-01T05:17:30.317Z,164
2017-07-01T05:18:40.570Z,168
2017-07-01T05:19:49.880Z,184
2017-07-01T05:20:59.810Z,188
2017-07-01T05:22:09.743Z,192
2017-07-01T05:23:19.957Z,196
2017-07-01T05:24:30.171Z,200
2017-07-01T05:25:39.827Z,204
2017-07-01T05:26:50.039Z,208
2017-07-01T05:27:59.334Z,208
2017-07-01T05:29:09.575Z,212
2017-07-01T05:30:19.784Z,220
2017-07-01T05:31:29.071Z,224
2017-07-01T05:32:38.975Z,228
2017-07-01T05:33:49.191Z,228
2017-07-01T05:34:58.785Z,232
2017-07-01T05:36:08.399Z,232
2017-07-01T05:37:18.599Z,228
2017-07-01T05:38:28.817Z,232
2017-07-01T05:39:38.717Z,228
2017-07-01T05:40:48.623Z,228
2017-07-01T05:41:58.528Z,220
2017-07-01T05:43:08.484Z,224
2017-07-01T05:44:17.794Z,228
2017-07-01T05:45:27.708Z,236
2017-07-01T05:46:37.612Z,248
2017-07-01T05:47:47.515Z,248
2017-07-01T05:48:57.726Z,260
2017-07-01T05:50:07.323Z,268
2017-07-01T05:51:17.522Z,268
2017-07-01T05:52:27.132Z,272
2017-07-01T05:53:37.035Z,276
2017-07-01T05:54:46.930Z,272
2017-07-01T05:55:56.833Z,268
2017-07-01T05:57:06.737Z,260
2017-07-01T05:58:16.330Z,264
2017-07-01T05:59:26.245Z,284
2017-07-01T06:00:35.895Z,292
2017-07-01T06:01:45.492Z,284
2017-07-01T06:02:55.701Z,284
2017-07-01T06:04:05.299Z,288
2017-07-01T06:05:15.519Z,304
2017-07-01T06:06:25.435Z,320
2017-07-01T06:07:35.047Z,332
2017-07-01T06:08:44.654Z,352
2017-07-01T06:09:53.956Z,372
2017-07-01T06:11:04.164Z,388
2017-07-01T06:12:14.371Z,380
2017-07-01T06:13:24.657Z,328
2017-07-01T06:14:34.583Z,272
2017-07-01T06:15:44.192Z,264
2017-07-01T06:16:53.489Z,252
2017-07-01T06:18:03.100Z,264
2017-07-01T06:19:13.316Z,276
2017-07-01T06:20:23.324Z,316
2017-07-01T06:21:33.234Z,320
2017-07-01T06:22:42.831Z,312
2017-07-01T06:23:53.051Z,328
2017-07-01T06:25:02.966Z,344
2017-07-01T06:26:12.585Z,384
2017-07-01T06:27:22.484Z,404
2017-07-01T06:28:32.414Z,416
2017-07-01T06:29:42.317Z,388
2017-07-01T06:30:52.537Z,496
2017-07-01T06:32:02.140Z,496
2017-07-01T06:33:12.352Z,436
2017-07-01T06:34:22.288Z,400
2017-07-01T06:35:32.199Z,412
2017-07-01T06:36:42.111Z,424
2017-07-01T06:37:52.157Z,384
2017-07-01T06:39:01.751Z,360
2017-07-01T06:40:11.956Z,336
2017-07-01T06:41:21.555Z,320
2017-07-01T06:42:31.455Z,328
2017-07-01T06:43:41.061Z,320
2017-07-01T06:44:50.656Z,308
2017-07-01T06:46:00.240Z,268
2017-07-01T06:47:10.470Z,312
2017-07-01T06:48:20.068Z,240
2017-07-01T06:49:29.981Z,172
2017-07-01T06:50:40.185Z,192
2017-07-01T06:51:50.092Z,252
2017-07-01T06:52:59.687Z,252
2017-07-01T06:54:08.981Z,220
2017-07-01T06:55:19.178Z,252
2017-07-01T06:56:29.392Z,288
2017-07-01T06:57:39.605Z,324
2017-07-01T06:58:49.522Z,184
2017-07-01T06:59:59.746Z,256
2017-07-01T07:01:09.970Z,252
2017-07-01T07:02:19.873Z,300
2017-07-01T07:03:29.785Z,252
2017-07-01T07:04:39.708Z,208
2017-07-01T07:05:49.915Z,192
2017-07-01T07:07:00.140Z,192
2017-07-01T07:08:10.358Z,184
2017-07-01T07:09:20.287Z,168
2017-07-01T07:10:29.893Z,192
2017-07-01T07:11:40.112Z,216
2017-07-01T07:12:50.334Z,212
2017-07-01T07:14:00.555Z,204
2017-07-01T07:15:10.473Z,200
2017-07-01T07:16:20.393Z,184
2017-07-01T07:17:29.987Z,172
2017-07-01T07:18:39.898Z,196
2017-07-01T07:19:50.081Z,204
2017-07-01T07:20:59.681Z,168
2017-07-01T07:22:09.913Z,176
2017-07-01T07:23:19.522Z,196
2017-07-01T07:24:29.441Z,216
2017-07-01T07:25:39.337Z,184
2017-07-01T07:26:49.570Z,192
2017-07-01T07:27:59.778Z,168
2017-07-01T07:29:09.985Z,160
2017-07-01T07:30:20.200Z,196
2017-07-01T07:31:30.414Z,188
2017-07-01T07:32:40.034Z,248
2017-07-01T07:33:50.249Z,204
2017-07-01T07:35:00.488Z,240
2017-07-01T07:36:10.390Z,284
2017-07-01T07:37:20.603Z,272
2017-07-01T07:38:30.816Z,256
2017-07-01T07:39:40.732Z,340
2017-07-01T07:40:51.536Z,276
2017-07-01T07:42:01.196Z,292
2017-07-01T07:43:11.137Z,264
2017-07-01T07:44:21.354Z,364
2017-07-01T07:45:30.972Z,328
2017-07-01T07:46:40.647Z,272
2017-07-01T07:47:50.854Z,280
2017-07-01T07:49:01.075Z,328
2017-07-01T07:50:11.298Z,400
2017-07-01T07:51:20.903Z,416
2017-07-01T07:52:30.808Z,416
2017-07-01T07:53:40.769Z,412
2017-07-01T07:54:50.373Z,380
2017-07-01T07:56:00.287Z,420
2017-07-01T07:57:09.898Z,428
2017-07-01T07:58:19.818Z,448
2017-07-01T07:59:30.044Z,360
2017-07-01T08:00:39.959Z,264
2017-07-01T08:01:49.557Z,212
2017-07-01T08:02:59.848Z,164
2017-07-01T08:04:10.069Z,116
2017-07-01T08:05:19.977Z,164
2017-07-01T08:06:29.879Z,312
2017-07-01T08:07:39.173Z,232
2017-07-01T08:08:49.378Z,220
2017-07-01T08:09:59.593Z,268
2017-07-01T08:11:09.808Z,456
2017-07-01T08:12:19.730Z,404
2017-07-01T08:13:29.669Z,572
2017-07-01T08:14:39.589Z,516
2017-07-01T08:15:49.812Z,452
2017-07-01T08:16:59.751Z,456
2017-07-01T08:18:09.666Z,560
2017-07-01T08:19:19.885Z,528
2017-07-01T08:20:29.787Z,416
2017-07-01T08:21:40.011Z,340
2017-07-01T08:22:49.931Z,304
2017-07-01T08:23:59.843Z,292
2017-07-01T08:25:10.061Z,372
2017-07-01T08:26:19.656Z,384
2017-07-01T08:27:28.657Z,328
2017-07-01T08:28:38.555Z,304
2017-07-01T08:29:48.475Z,404
2017-07-01T08:30:58.689Z,380
2017-07-01T08:32:08.898Z,452
2017-07-01T08:33:18.206Z,440
2017-07-01T08:34:28.131Z,480
2017-07-01T08:35:38.345Z,412
2017-07-01T08:36:48.567Z,376
2017-07-01T08:37:58.831Z,360
2017-07-01T08:39:09.095Z,364
2017-07-01T08:40:19.303Z,388
2017-07-01T08:41:29.215Z,440
2017-07-01T08:42:39.427Z,424
2017-07-01T08:43:49.657Z,440
2017-07-01T08:44:59.272Z,440
2017-07-01T08:46:09.177Z,460
2017-07-01T08:47:19.453Z,448
2017-07-01T08:48:29.366Z,368
2017-07-01T08:49:39.281Z,388
2017-07-01T08:50:49.508Z,388
2017-07-01T08:51:59.584Z,452
2017-07-01T08:53:09.493Z,488
2017-07-01T08:54:19.400Z,508
2017-07-01T08:55:29.014Z,508
2017-07-01T08:56:38.620Z,612
2017-07-01T08:57:48.219Z,804
2017-07-01T08:58:58.132Z,868
2017-07-01T09:00:08.358Z,836
2017-07-01T09:01:17.988Z,868
2017-07-01T09:02:27.585Z,900
2017-07-01T09:03:37.506Z,996
2017-07-01T09:04:47.465Z,992
2017-07-01T09:05:57.382Z,940
2017-07-01T09:07:06.980Z,836
2017-07-01T09:08:17.199Z,872
2017-07-01T09:09:27.422Z,852
2017-07-01T09:10:37.642Z,688
2017-07-01T09:11:46.947Z,532
2017-07-01T09:12:56.558Z,660
2017-07-01T09:14:06.774Z,828
2017-07-01T09:15:16.690Z,864
2017-07-01T09:16:26.283Z,832
2017-07-01T09:17:36.507Z,784
2017-07-01T09:18:46.741Z,840
2017-07-01T09:19:56.966Z,872
2017-07-01T09:21:07.195Z,904
2017-07-01T09:22:16.802Z,876
2017-07-01T09:23:26.722Z,848
2017-07-01T09:24:36.941Z,764
2017-07-01T09:25:46.560Z,744
2017-07-01T09:26:56.481Z,680
2017-07-01T09:28:06.391Z,616
2017-07-01T09:29:16.603Z,684
2017-07-01T09:30:26.209Z,704
2017-07-01T09:31:36.108Z,720
2017-07-01T09:32:46.342Z,660
2017-07-01T09:33:56.559Z,656
2017-07-01T09:35:06.468Z,668
2017-07-01T09:36:16.387Z,680
2017-07-01T09:37:25.708Z,728
2017-07-01T09:38:35.921Z,620
2017-07-01T09:39:46.143Z,612
2017-07-01T09:40:55.760Z,656
2017-07-01T09:42:05.365Z,728
2017-07-01T09:43:14.967Z,764
2017-07-01T09:44:25.191Z,712
2017-07-01T09:45:34.880Z,656
2017-07-01T09:46:44.492Z,548
2017-07-01T09:47:54.755Z,596
2017-07-01T09:49:04.383Z,568
2017-07-01T09:50:14.309Z,612
2017-07-01T09:51:23.918Z,684
2017-07-01T09:52:33.527Z,748
2017-07-01T09:53:43.442Z,740
2017-07-01T09:54:53.044Z,724
2017-07-01T09:56:02.972Z,732
2017-07-01T09:57:12.911Z,740
2017-07-01T09:58:22.822Z,744
2017-07-01T09:59:32.448Z,752
2017-07-01T10:00:42.064Z,728
2017-07-01T10:01:51.989Z,816
2017-07-01T10:03:01.600Z,584
2017-07-01T10:04:11.210Z,472
2017-07-01T10:05:20.502Z,540
2017-07-01T10:06:30.431Z,516
2017-07-01T10:07:40.329Z,544
2017-07-01T10:08:50.247Z,580
2017-07-01T10:09:59.864Z,596
2017-07-01T10:11:10.095Z,468
2017-07-01T10:12:19.701Z,456
2017-07-01T10:13:29.309Z,436
2017-07-01T10:14:38.616Z,328
2017-07-01T10:15:48.250Z,540
2017-07-01T10:16:58.163Z,732
2017-07-01T10:18:07.779Z,712
2017-07-01T10:19:18.095Z,712
2017-07-01T10:20:28.038Z,808
2017-07-01T10:21:37.653Z,752
2017-07-01T10:22:47.262Z,592
2017-07-01T10:23:57.478Z,932
2017-07-01T10:25:07.101Z,1244
2017-07-01T10:26:17.330Z,1144
2017-07-01T10:27:27.239Z,1080
2017-07-01T10:28:36.534Z,1052
2017-07-01T10:29:45.527Z,1124
2017-07-01T10:30:54.832Z,1208
2017-07-01T10:32:04.435Z,1084
2017-07-01T10:33:14.664Z,892
2017-07-01T10:34:24.889Z,784
2017-07-01T10:35:34.496Z,672
2017-07-01T10:36:44.507Z,616
2017-07-01T10:37:53.828Z,504
2017-07-01T10:39:03.739Z,276
2017-07-01T10:40:13.649Z,260
2017-07-01T10:41:23.279Z,312
2017-07-01T10:42:33.180Z,304
2017-07-01T10:43:43.395Z,432
2017-07-01T10:44:53.303Z,468
2017-07-01T10:46:03.521Z,448
2017-07-01T10:47:13.743Z,544
2017-07-01T10:48:23.968Z,476
2017-07-01T10:49:33.265Z,380
2017-07-01T10:50:43.473Z,416
2017-07-01T10:51:53.136Z,388
2017-07-01T10:53:03.055Z,348
2017-07-01T10:54:13.272Z,348
2017-07-01T10:55:22.887Z,344
2017-07-01T10:56:33.094Z,444
2017-07-01T10:57:42.993Z,528
2017-07-01T10:58:52.901Z,496
2017-07-01T11:00:02.524Z,536
2017-07-01T11:01:12.127Z,624
2017-07-01T11:02:22.040Z,572
2017-07-01T11:03:31.968Z,496
2017-07-01T11:04:41.884Z,428
2017-07-01T11:05:52.109Z,556
2017-07-01T11:07:02.043Z,528
2017-07-01T11:08:11.660Z,652
2017-07-01T11:09:21.580Z,668
2017-07-01T11:10:30.887Z,588
2017-07-01T11:11:40.480Z,464
2017-07-01T11:12:50.396Z,440
2017-07-01T11:14:00.654Z,572
2017-07-01T11:15:10.598Z,580
2017-07-01T11:16:20.517Z,488
2017-07-01T11:17:30.135Z,484
2017-07-01T11:18:39.435Z,528
2017-07-01T11:19:49.045Z,496
2017-07-01T11:20:58.662Z,528
2017-07-01T11:22:08.589Z,552
2017-07-01T11:23:18.500Z,508
2017-07-01T11:24:28.430Z,456
2017-07-01T11:25:38.362Z,416
2017-07-01T11:26:48.581Z,424
2017-07-01T11:27:58.496Z,392
2017-07-01T11:29:07.807Z,392
2017-07-01T11:30:18.051Z,368
2017-07-01T11:31:28.297Z,404
2017-07-01T11:32:38.503Z,436
2017-07-01T11:33:48.404Z,412
2017-07-01T11:34:58.618Z,540
2017-07-01T11:36:08.571Z,568
2017-07-01T11:37:18.794Z,476
2017-07-01T11:38:29.023Z,508
2017-07-01T11:39:39.232Z,644
2017-07-01T11:40:49.146Z,632
2017-07-01T11:41:58.755Z,744
2017-07-01T11:43:08.670Z,644
2017-07-01T11:44:18.578Z,660
2017-07-01T11:45:28.789Z,652
2017-07-01T11:46:38.099Z,624
2017-07-01T11:47:48.325Z,624
2017-07-01T11:48:58.243Z,652
2017-07-01T11:50:07.859Z,552
2017-07-01T11:51:18.073Z,548
2017-07-01T11:52:28.010Z,708
2017-07-01T11:53:37.937Z,904
2017-07-01T11:54:48.148Z,856
2017-07-01T11:55:57.748Z,768
2017-07-01T11:57:07.052Z,676
2017-07-01T11:58:16.959Z,540
2017-07-01T11:59:26.874Z,516
2017-07-01T12:00:36.793Z,408
2017-07-01T12:01:47.036Z,360
2017-07-01T12:02:57.275Z,316
2017-07-01T12:04:07.529Z,344
2017-07-01T12:05:17.145Z,360
2017-07-01T12:06:26.785Z,308
2017-07-01T12:07:36.071Z,276
2017-07-01T12:08:45.664Z,264
2017-07-01T12:09:55.934Z,208
2017-07-01T12:11:06.143Z,168
2017-07-01T12:12:15.750Z,204
2017-07-01T12:13:25.662Z,384
2017-07-01T12:14:35.265Z,504
2017-07-01T12:15:44.874Z,556
2017-07-01T12:16:54.771Z,584
2017-07-01T12:18:04.379Z,588
2017-07-01T12:19:14.602Z,596
2017-07-01T12:20:24.205Z,628
2017-07-01T12:21:34.413Z,660
2017-07-01T12:22:44.331Z,708
2017-07-01T12:23:54.554Z,712
2017-07-01T12:25:04.502Z,708
2017-07-01T12:26:14.116Z,844
2017-07-01T12:27:23.727Z,872
2017-07-01T12:28:33.643Z,1028
2017-07-01T12:29:43.261Z,1300
2017-07-01T12:30:53.197Z,1428
2017-07-01T12:32:03.423Z,1580
2017-07-01T12:33:13.371Z,1664
2017-07-01T12:34:22.679Z,1500
2017-07-01T12:35:32.317Z,1528
2017-07-01T12:36:42.247Z,1584
2017-07-01T12:37:51.898Z,1524
2017-07-01T12:39:02.178Z,1444
2017-07-01T12:40:11.795Z,1264
2017-07-01T12:41:21.705Z,1080
2017-07-01T12:42:31.936Z,1100
2017-07-01T12:43:41.851Z,1132
2017-07-01T12:44:51.467Z,976
2017-07-01T12:46:01.702Z,1080
2017-07-01T12:47:11.939Z,1140
2017-07-01T12:48:22.168Z,1268
2017-07-01T12:49:32.089Z,1088
2017-07-01T12:50:41.681Z,800
2017-07-01T12:51:51.284Z,556
2017-07-01T12:53:01.194Z,548
2017-07-01T12:54:11.425Z,572
2017-07-01T12:55:21.337Z,564
2017-07-01T12:56:31.250Z,500
2017-07-01T12:57:40.872Z,440
2017-07-01T12:58:50.789Z,424
2017-07-01T13:00:00.390Z,476
2017-07-01T13:01:10.599Z,468
2017-07-01T13:02:20.820Z,524
2017-07-01T13:03:31.037Z,612
2017-07-01T13:04:41.004Z,796
2017-07-01T13:05:50.922Z,996
2017-07-01T13:07:01.143Z,1096
2017-07-01T13:08:11.067Z,904
2017-07-01T13:09:21.286Z,900
2017-07-01T13:10:31.514Z,1032
2017-07-01T13:11:41.437Z,1028
2017-07-01T13:12:51.054Z,792
2017-07-01T13:14:00.989Z,720
2017-07-01T13:15:10.904Z,704
2017-07-01T13:16:21.104Z,652
2017-07-01T13:17:31.004Z,640
2017-07-01T13:18:40.591Z,556
2017-07-01T13:19:50.496Z,468
2017-07-01T13:21:00.403Z,444
2017-07-01T13:22:10.320Z,432
2017-07-01T13:23:20.537Z,384
2017-07-01T13:24:29.830Z,328
2017-07-01T13:25:39.740Z,368
2017-07-01T13:26:49.953Z,456
2017-07-01T13:27:59.867Z,368
2017-07-01T13:29:09.793Z,468
2017-07-01T13:30:20.007Z,420
2017-07-01T13:31:29.927Z,524
2017-07-01T13:32:39.229Z,536
2017-07-01T13:33:48.857Z,348
2017-07-01T13:34:58.161Z,356
2017-07-01T13:36:08.078Z,408
2017-07-01T13:37:17.975Z,384
2017-07-01T13:38:27.882Z,392
2017-07-01T13:39:38.091Z,504
2017-07-01T13:40:47.990Z,440
2017-07-01T13:41:57.292Z,472
2017-07-01T13:43:07.202Z,724
2017-07-01T13:44:17.103Z,632
2017-07-01T13:45:27.011Z,784
2017-07-01T13:46:36.313Z,712
2017-07-01T13:47:46.523Z,700
2017-07-01T13:48:56.437Z,844
2017-07-01T13:50:06.041Z,1100
2017-07-01T13:51:16.260Z,1300
2017-07-01T13:52:25.550Z,1284
2017-07-01T13:53:35.452Z,1116
2017-07-01T13:54:45.360Z,896
2017-07-01T13:55:55.583Z,980
2017-07-01T13:57:05.502Z,1072
2017-07-01T13:58:15.742Z,816
2017-07-01T13:59:25.968Z,696
2017-07-01T14:00:35.570Z,616
2017-07-01T14:01:45.778Z,500
2017-07-01T14:02:56.004Z,548
2017-07-01T14:04:05.910Z,564
2017-07-01T14:05:15.824Z,640
2017-07-01T14:06:25.414Z,704
2017-07-01T14:07:35.010Z,652
2017-07-01T14:08:44.928Z,700
2017-07-01T14:09:55.137Z,676
2017-07-01T14:11:05.361Z,744
2017-07-01T14:12:14.968Z,820
2017-07-01T14:13:24.918Z,1028
2017-07-01T14:14:34.517Z,1172
2017-07-01T14:15:44.738Z,1156
2017-07-01T14:16:54.660Z,1128
2017-07-01T14:18:03.960Z,984
2017-07-01T14:19:13.880Z,956
2017-07-01T14:20:23.784Z,1052
2017-07-01T14:21:33.692Z,936
2017-07-01T14:22:43.310Z,824
2017-07-01T14:23:52.907Z,800
2017-07-01T14:25:02.822Z,716
2017-07-01T14:26:12.748Z,716
2017-07-01T14:27:22.976Z,604
2017-07-01T14:28:33.190Z,740
2017-07-01T14:29:43.417Z,672
2017-07-01T14:30:53.346Z,624
2017-07-01T14:32:03.567Z,676
2017-07-01T14:33:13.873Z,660
2017-07-01T14:34:23.817Z,608
2017-07-01T14:35:33.746Z,528
2017-07-01T14:36:43.359Z,468
2017-07-01T14:37:53.574Z,372
2017-07-01T14:39:03.800Z,452
2017-07-01T14:40:13.149Z,532
2017-07-01T14:41:23.057Z,644
2017-07-01T14:42:33.268Z,556
2017-07-01T14:43:43.488Z,516
2017-07-01T14:44:53.399Z,560
2017-07-01T14:46:02.996Z,628
2017-07-01T14:47:13.211Z,552
2017-07-01T14:48:23.119Z,376
2017-07-01T14:49:32.426Z,416
2017-07-01T14:50:42.029Z,532
2017-07-01T14:51:50.732Z,636
2017-07-01T14:53:00.653Z,708
2017-07-01T14:54:10.865Z,636
2017-07-01T14:55:21.085Z,632
2017-07-01T14:56:31.291Z,772
2017-07-01T14:57:41.197Z,856
2017-07-01T14:58:51.426Z,856
2017-07-01T15:00:01.028Z,756
2017-07-01T15:01:10.325Z,688
2017-07-01T15:02:20.239Z,716
2017-07-01T15:03:29.863Z,760
2017-07-01T15:04:39.618Z,824
2017-07-01T15:05:49.837Z,832
2017-07-01T15:06:59.741Z,900
2017-07-01T15:08:09.646Z,896
2017-07-01T15:09:19.871Z,952
2017-07-01T15:10:29.480Z,904
2017-07-01T15:11:39.708Z,920
2017-07-01T15:12:49.645Z,864
2017-07-01T15:13:59.568Z,740
2017-07-01T15:15:09.799Z,660
2017-07-01T15:16:20.012Z,592
2017-07-01T15:17:29.924Z,600
2017-07-01T15:18:39.830Z,544
2017-07-01T15:19:49.440Z,552
2017-07-01T15:20:59.045Z,624
2017-07-01T15:22:08.962Z,560
2017-07-01T15:23:18.880Z,536
2017-07-01T15:24:29.096Z,560
2017-07-01T15:25:39.321Z,460
2017-07-01T15:26:49.227Z,324
2017-07-01T15:27:59.134Z,248
2017-07-01T15:29:08.439Z,340
2017-07-01T15:30:18.361Z,344
2017-07-01T15:31:28.582Z,456
2017-07-01T15:32:37.876Z,548
2017-07-01T15:33:47.790Z,484
2017-07-01T15:34:57.398Z,532
2017-07-01T15:36:07.310Z,432
2017-07-01T15:37:16.903Z,412
2017-07-01T15:38:26.502Z,352
2017-07-01T15:39:36.481Z,356
2017-07-01T15:40:46.095Z,332
2017-07-01T15:41:56.013Z,332
2017-07-01T15:43:06.237Z,336
2017-07-01T15:44:15.854Z,272
2017-07-01T15:45:25.465Z,292
2017-07-01T15:46:35.379Z,308
2017-07-01T15:47:44.980Z,364
2017-07-01T15:48:54.586Z,352
2017-07-01T15:50:03.889Z,396
2017-07-01T15:51:13.809Z,396
2017-07-01T15:52:24.035Z,448
2017-07-01T15:53:34.255Z,352
2017-07-01T15:54:44.164Z,460
2017-07-01T15:55:53.782Z,444
2017-07-01T15:57:03.742Z,312
2017-07-01T15:58:13.659Z,336
2017-07-01T15:59:23.963Z,368
2017-07-01T16:00:34.186Z,260
2017-07-01T16:01:44.411Z,372
2017-07-01T16:02:54.035Z,384
2017-07-01T16:04:04.251Z,344
2017-07-01T16:05:14.170Z,320
2017-07-01T16:06:24.394Z,248
2017-07-01T16:07:34.614Z,228
2017-07-01T16:08:44.521Z,272
2017-07-01T16:09:54.417Z,268
2017-07-01T16:11:04.335Z,268
2017-07-01T16:12:14.034Z,148
2017-07-01T16:13:24.283Z,208
2017-07-01T16:14:34.205Z,196
2017-07-01T16:15:43.812Z,276
2017-07-01T16:16:54.043Z,344
2017-07-01T16:18:04.274Z,344
2017-07-01T16:19:14.502Z,320